createdAt,value
2023-09-08T00:00:52.269Z,49.98
2023-09-08T00:03:22.919Z,50.05
2023-09-08T00:05:51.079Z,49.92
2023-09-08T00:08:18.614Z,49.88
2023-09-08T00:10:46.431Z,49.90
2023-09-08T00:13:14.083Z,49.73
2023-09-08T00:15:41.655Z,50.45
2023-09-08T00:18:09.528Z,50.16
2023-09-08T00:20:37.364Z,50.41
2023-09-08T00:23:04.980Z,51.04
2023-09-08T00:25:32.937Z,51.34
2023-09-08T00:28:00.421Z,51.57
2023-09-08T00:30:27.898Z,51.06
2023-09-08T00:32:55.817Z,51.08
2023-09-08T00:35:23.580Z,50.84
2023-09-08T00:37:51.186Z,50.65
2023-09-08T00:40:19.056Z,50.54
2023-09-08T00:42:46.624Z,50.71
2023-09-08T00:45:14.210Z,50.76
2023-09-08T00:47:42.128Z,51.00
2023-09-08T00:50:10.098Z,50.90
2023-09-08T00:52:37.723Z,51.13
2023-09-08T00:55:05.959Z,51.77
2023-09-08T00:57:33.807Z,51.36
2023-09-08T01:00:01.586Z,52.08
2023-09-08T01:02:29.689Z,52.85
2023-09-08T01:04:57.346Z,53.29
2023-09-08T01:07:24.874Z,52.39
2023-09-08T01:09:52.958Z,52.44
2023-09-08T01:12:20.779Z,52.41
2023-09-08T01:14:48.373Z,51.63
2023-09-08T01:17:16.175Z,51.52
2023-09-08T01:19:44.501Z,51.70
2023-09-08T01:22:47.105Z,51.66
2023-09-08T01:25:25.848Z,51.44
2023-09-08T01:27:55.054Z,51.33
2023-09-08T01:30:24.983Z,51.63
2023-09-08T01:32:53.651Z,51.51
2023-09-08T01:35:21.336Z,51.21
2023-09-08T01:37:50.192Z,51.34
2023-09-08T01:40:17.874Z,51.36
2023-09-08T01:42:46.307Z,51.46
2023-09-08T01:45:14.078Z,51.56
2023-09-08T01:47:42.841Z,51.85
2023-09-08T01:50:10.458Z,51.81
2023-09-08T01:52:38.290Z,51.87
2023-09-08T01:55:06.312Z,51.59
2023-09-08T01:57:33.822Z,51.49
2023-09-08T02:00:01.595Z,51.08
2023-09-08T02:02:29.566Z,51.07
2023-09-08T02:04:57.484Z,51.14
2023-09-08T02:07:25.064Z,51.49
2023-09-08T02:09:52.647Z,51.79
2023-09-08T02:12:20.929Z,51.91
2023-09-08T02:14:48.664Z,52.46
2023-09-08T02:17:16.209Z,52.39
2023-09-08T02:19:46.001Z,52.70
2023-09-08T02:22:13.515Z,53.17
2023-09-08T02:24:41.037Z,53.50
2023-09-08T02:27:08.809Z,53.00
2023-09-08T02:29:37.277Z,53.23
2023-09-08T02:32:05.301Z,52.93
2023-09-08T02:34:39.567Z,52.66
2023-09-08T02:37:07.475Z,53.03
2023-09-08T02:39:35.676Z,53.54
2023-09-08T02:42:03.386Z,53.21
2023-09-08T02:44:31.056Z,52.92
2023-09-08T02:46:58.865Z,52.88
2023-09-08T02:49:26.781Z,53.27
2023-09-08T02:51:54.815Z,53.29
2023-09-08T02:54:22.668Z,52.97
2023-09-08T02:56:50.192Z,52.81
2023-09-08T02:59:19.875Z,52.76
2023-09-08T03:01:48.040Z,53.13
2023-09-08T03:04:15.589Z,52.88
2023-09-08T03:06:43.106Z,53.04
2023-09-08T03:09:10.970Z,53.49
2023-09-08T03:11:38.698Z,53.25
2023-09-08T03:14:08.287Z,53.54
2023-09-08T03:16:36.285Z,54.03
2023-09-08T03:19:04.894Z,53.92
2023-09-08T03:21:32.598Z,53.69
2023-09-08T03:24:00.708Z,53.32
2023-09-08T03:26:28.233Z,53.49
2023-09-08T03:28:55.689Z,53.40
2023-09-08T03:31:23.618Z,53.50
2023-09-08T03:33:52.373Z,53.39
2023-09-08T03:36:20.344Z,53.10
2023-09-08T03:38:48.125Z,53.64
2023-09-08T03:41:15.997Z,54.06
2023-09-08T03:43:43.578Z,53.54
2023-09-08T03:46:11.596Z,54.06
2023-09-08T03:48:39.196Z,53.83
2023-09-08T03:51:07.181Z,53.72
2023-09-08T03:53:35.390Z,54.02
2023-09-08T03:56:03.249Z,54.64
2023-09-08T03:58:30.757Z,54.60
2023-09-08T04:00:58.843Z,54.18
2023-09-08T04:03:26.830Z,54.79
2023-09-08T04:05:54.592Z,54.28
2023-09-08T04:08:22.583Z,54.86
2023-09-08T04:10:50.408Z,55.51
2023-09-08T04:13:18.109Z,54.89
2023-09-08T04:15:45.697Z,54.53
2023-09-08T04:18:13.606Z,54.60
2023-09-08T04:20:41.272Z,55.10
2023-09-08T04:23:08.806Z,54.69
2023-09-08T04:25:37.670Z,55.39
2023-09-08T04:28:05.849Z,54.70
2023-09-08T04:30:33.982Z,54.33
2023-09-08T04:33:02.303Z,54.37
2023-09-08T04:35:29.967Z,54.39
2023-09-08T04:37:57.553Z,54.88
2023-09-08T04:40:25.359Z,54.07
2023-09-08T04:42:54.419Z,53.50
2023-09-08T04:45:23.348Z,53.38
2023-09-08T04:47:51.762Z,53.22
2023-09-08T04:50:19.572Z,53.36
2023-09-08T04:52:47.450Z,52.96
2023-09-08T04:55:15.431Z,52.82
2023-09-08T04:57:42.954Z,52.78
2023-09-08T05:00:12.955Z,52.99
2023-09-08T05:02:40.935Z,52.66
2023-09-08T05:05:09.203Z,52.61
2023-09-08T05:07:37.166Z,52.49
2023-09-08T05:10:05.435Z,52.68
2023-09-08T05:12:35.797Z,52.10
2023-09-08T05:15:08.020Z,51.82
2023-09-08T05:17:36.877Z,51.14
2023-09-08T05:20:04.850Z,50.51
2023-09-08T05:22:32.513Z,49.38
2023-09-08T05:25:00.848Z,48.24
2023-09-08T05:27:28.449Z,48.12
2023-09-08T05:29:56.031Z,48.52
2023-09-08T05:32:23.839Z,48.43
2023-09-08T05:34:51.673Z,48.47
2023-09-08T05:37:19.409Z,48.68
2023-09-08T05:39:47.233Z,48.61
2023-09-08T05:42:14.777Z,48.47
2023-09-08T05:44:42.482Z,48.73
2023-09-08T05:47:11.455Z,48.48
2023-09-08T05:49:39.103Z,48.18
2023-09-08T05:52:06.816Z,47.95
2023-09-08T05:54:35.724Z,46.78
2023-09-08T05:57:03.409Z,45.45
2023-09-08T05:59:31.017Z,45.66
2023-09-08T06:01:59.071Z,46.52
2023-09-08T06:04:27.078Z,47.27
2023-09-08T06:06:54.883Z,46.98
2023-09-08T06:09:22.718Z,47.02
2023-09-08T06:11:50.775Z,47.64
2023-09-08T06:14:18.349Z,47.28
2023-09-08T06:16:46.554Z,47.61
2023-09-08T06:19:14.462Z,47.28
2023-09-08T06:21:42.352Z,46.59
2023-09-08T06:24:09.987Z,47.04
2023-09-08T06:26:38.496Z,46.77
2023-09-08T06:29:06.845Z,46.66
2023-09-08T06:31:34.512Z,46.49
2023-09-08T06:34:02.961Z,45.19
2023-09-08T06:36:30.720Z,45.29
2023-09-08T06:38:58.316Z,43.42
2023-09-08T06:41:28.299Z,44.62
2023-09-08T06:43:56.515Z,44.87
2023-09-08T06:46:25.094Z,44.36
2023-09-08T06:48:53.077Z,45.40
2023-09-08T06:51:20.596Z,44.84
2023-09-08T06:53:56.749Z,43.77
2023-09-08T06:56:24.894Z,43.28
2023-09-08T06:58:53.045Z,43.18
2023-09-08T07:01:21.099Z,43.61
2023-09-08T07:03:49.287Z,43.19
2023-09-08T07:06:17.739Z,43.42
2023-09-08T07:08:45.421Z,44.00
2023-09-08T07:11:15.237Z,43.45
2023-09-08T07:13:45.997Z,43.53
2023-09-08T07:16:14.538Z,43.94
2023-09-08T07:18:42.189Z,43.40
2023-09-08T07:21:10.069Z,43.17
2023-09-08T07:23:38.435Z,43.47
2023-09-08T07:26:07.086Z,43.08
2023-09-08T07:28:35.748Z,42.83
2023-09-08T07:31:05.441Z,43.95
2023-09-08T07:33:33.478Z,42.59
2023-09-08T07:36:08.270Z,43.02
2023-09-08T07:38:36.442Z,43.63
2023-09-08T07:41:04.361Z,42.68
2023-09-08T07:43:32.598Z,42.02
2023-09-08T07:46:00.659Z,42.10
2023-09-08T07:48:28.344Z,42.93
2023-09-08T07:50:56.038Z,42.29
2023-09-08T07:53:23.832Z,42.67
2023-09-08T07:55:51.404Z,41.56
2023-09-08T07:58:19.392Z,41.74
2023-09-08T08:00:47.417Z,42.45
2023-09-08T08:03:15.385Z,40.33
2023-09-08T08:05:42.996Z,41.63
2023-09-08T08:08:10.911Z,42.77
2023-09-08T08:10:45.801Z,40.54
2023-09-08T08:13:33.361Z,40.92
2023-09-08T08:16:01.385Z,41.15
2023-09-08T08:18:29.017Z,41.34
2023-09-08T08:20:56.635Z,39.61
2023-09-08T08:23:24.456Z,41.08
2023-09-08T08:25:52.040Z,41.79
2023-09-08T08:28:19.612Z,41.79
2023-09-08T08:30:49.423Z,40.64
2023-09-08T08:33:17.164Z,39.98
2023-09-08T08:35:51.491Z,41.52
2023-09-08T08:38:19.645Z,41.68
2023-09-08T08:40:47.340Z,41.41
2023-09-08T08:43:15.002Z,40.55
2023-09-08T08:45:44.350Z,40.96
2023-09-08T08:48:13.710Z,40.30
2023-09-08T08:50:43.321Z,40.39
2023-09-08T08:53:11.732Z,39.95
2023-09-08T08:55:39.309Z,40.27
2023-09-08T08:58:10.013Z,39.51
2023-09-08T09:00:38.857Z,40.36
2023-09-08T09:03:14.020Z,39.74
2023-09-08T09:05:46.501Z,38.94
2023-09-08T09:08:17.459Z,38.96
2023-09-08T09:10:45.383Z,39.72
2023-09-08T09:13:12.980Z,38.53
2023-09-08T09:15:41.605Z,38.44
2023-09-08T09:18:10.207Z,39.44
2023-09-08T09:20:37.869Z,39.68
2023-09-08T09:23:05.391Z,38.72
2023-09-08T09:25:33.523Z,38.13
2023-09-08T09:28:03.628Z,37.76
2023-09-08T09:30:48.559Z,37.86
2023-09-08T09:33:17.068Z,37.86
2023-09-08T09:35:46.786Z,38.35
2023-09-08T09:38:14.919Z,38.08
2023-09-08T09:40:42.898Z,36.68
2023-09-08T09:43:12.490Z,36.31
2023-09-08T09:45:41.280Z,37.67
2023-09-08T09:48:10.440Z,37.48
2023-09-08T09:50:42.719Z,37.23
2023-09-08T09:53:15.583Z,36.01
2023-09-08T09:55:44.805Z,37.58
2023-09-08T09:58:13.404Z,37.75
2023-09-08T10:00:42.408Z,37.73
2023-09-08T10:03:11.989Z,36.27
2023-09-08T10:05:39.601Z,36.55
2023-09-08T10:08:07.608Z,36.92
2023-09-08T10:10:35.876Z,35.58
2023-09-08T10:13:07.410Z,36.12
2023-09-08T10:15:35.418Z,35.39
2023-09-08T10:18:06.124Z,34.63
2023-09-08T10:20:35.689Z,35.38
2023-09-08T10:23:10.036Z,34.78
2023-09-08T10:25:44.142Z,35.02
2023-09-08T10:28:14.094Z,35.68
2023-09-08T10:30:42.076Z,35.72
2023-09-08T10:33:12.748Z,35.19
2023-09-08T10:35:41.436Z,34.83
2023-09-08T10:38:28.957Z,34.22
2023-09-08T10:41:18.538Z,33.77
2023-09-08T10:43:47.442Z,34.14
2023-09-08T10:46:28.812Z,34.92
2023-09-08T10:49:03.533Z,33.26
2023-09-08T10:51:31.793Z,33.18
2023-09-08T10:53:59.499Z,34.68
2023-09-08T10:56:50.332Z,35.52
2023-09-08T10:59:18.313Z,33.96
2023-09-08T11:01:48.653Z,33.91
2023-09-08T11:04:20.311Z,33.46
2023-09-08T11:06:50.220Z,33.49
2023-09-08T11:09:17.772Z,32.30
2023-09-08T11:11:46.322Z,32.41
2023-09-08T11:14:14.547Z,32.63
2023-09-08T11:16:42.083Z,33.52
2023-09-08T11:19:11.154Z,32.22
2023-09-08T11:21:41.820Z,32.89
2023-09-08T11:24:10.748Z,32.32
2023-09-08T11:26:38.688Z,32.09
2023-09-08T11:29:06.668Z,32.19
2023-09-08T11:31:35.757Z,31.98
2023-09-08T11:34:06.517Z,30.92
2023-09-08T11:36:36.242Z,30.81
2023-09-08T11:39:07.169Z,30.48
2023-09-08T11:41:35.892Z,31.01
2023-09-08T11:44:03.578Z,30.07
2023-09-08T11:46:31.499Z,28.98
2023-09-08T11:48:59.706Z,29.42
2023-09-08T11:51:27.637Z,29.43
2023-09-08T11:53:55.260Z,28.93
2023-09-08T11:56:23.215Z,29.92
2023-09-08T11:58:51.268Z,29.94
2023-09-08T12:01:19.901Z,30.15
2023-09-08T12:03:54.826Z,30.43
2023-09-08T12:06:27.114Z,29.19
2023-09-08T12:08:56.530Z,28.92
2023-09-08T12:11:24.188Z,29.55
2023-09-08T12:13:51.784Z,29.29
2023-09-08T12:16:20.799Z,29.38
2023-09-08T12:18:49.837Z,29.60
2023-09-08T12:21:17.577Z,29.89
2023-09-08T12:23:50.327Z,29.74
2023-09-08T12:26:18.733Z,30.06
2023-09-08T12:28:47.889Z,30.93
2023-09-08T12:31:16.544Z,29.22
2023-09-08T12:33:45.173Z,29.57
2023-09-08T12:36:17.928Z,28.60
2023-09-08T12:38:53.041Z,28.38
2023-09-08T12:41:21.265Z,29.36
2023-09-08T12:43:48.886Z,29.63
2023-09-08T12:46:18.327Z,28.17
2023-09-08T12:48:46.185Z,27.90
2023-09-08T12:51:13.722Z,28.60
2023-09-08T12:53:41.345Z,28.98
2023-09-08T12:56:09.436Z,27.99
2023-09-08T12:58:37.239Z,28.23
2023-09-08T13:01:07.843Z,28.70
2023-09-08T13:03:35.785Z,28.70
2023-09-08T13:06:03.439Z,27.28
2023-09-08T13:08:31.161Z,28.25
2023-09-08T13:10:59.016Z,27.47
2023-09-08T13:13:27.943Z,27.25
2023-09-08T13:15:55.470Z,28.28
2023-09-08T13:18:23.374Z,27.52
2023-09-08T13:20:50.920Z,28.19
2023-09-08T13:23:18.530Z,27.41
2023-09-08T13:25:46.487Z,27.30
2023-09-08T13:28:14.018Z,27.14
2023-09-08T13:30:41.600Z,27.39
2023-09-08T13:33:09.835Z,27.58
2023-09-08T13:35:37.574Z,27.96
2023-09-08T13:38:05.294Z,27.70
2023-09-08T13:40:33.608Z,26.83
2023-09-08T13:43:01.604Z,26.97
2023-09-08T13:45:30.319Z,28.07
2023-09-08T13:47:58.650Z,27.41
2023-09-08T13:50:27.591Z,28.22
2023-09-08T13:52:57.446Z,27.47
2023-09-08T13:55:35.847Z,27.17
2023-09-08T13:58:09.103Z,27.74
2023-09-08T14:00:39.544Z,27.21
2023-09-08T14:03:12.805Z,27.05
2023-09-08T14:05:45.465Z,27.27
2023-09-08T14:08:18.367Z,27.98
2023-09-08T14:11:04.831Z,27.87
2023-09-08T14:13:38.488Z,26.93
2023-09-08T14:16:06.330Z,27.40
2023-09-08T14:18:34.486Z,26.79
2023-09-08T14:21:02.315Z,27.32
2023-09-08T14:23:30.197Z,26.63
2023-09-08T14:25:57.940Z,26.96
2023-09-08T14:28:26.980Z,27.06
2023-09-08T14:30:54.669Z,27.02
2023-09-08T14:33:22.237Z,26.78
2023-09-08T14:35:52.719Z,27.64
2023-09-08T14:38:20.495Z,28.22
2023-09-08T14:41:01.755Z,28.19
2023-09-08T14:43:30.609Z,28.72
2023-09-08T14:45:58.578Z,28.40
2023-09-08T14:48:26.481Z,27.75
2023-09-08T14:50:55.642Z,28.01
2023-09-08T14:53:23.696Z,26.67
2023-09-08T14:55:51.318Z,26.98
2023-09-08T14:58:19.210Z,26.87
2023-09-08T15:00:47.423Z,26.87
2023-09-08T15:03:16.192Z,26.79
2023-09-08T15:05:44.255Z,27.26
2023-09-08T15:08:13.656Z,27.49
2023-09-08T15:10:41.540Z,27.57
2023-09-08T15:13:09.382Z,28.09
2023-09-08T15:15:37.099Z,28.01
2023-09-08T15:18:04.883Z,27.86
2023-09-08T15:20:32.753Z,28.25
2023-09-08T15:23:00.377Z,27.60
2023-09-08T15:25:27.944Z,28.10
2023-09-08T15:27:55.786Z,26.75
2023-09-08T15:30:23.331Z,26.57
2023-09-08T15:32:50.918Z,25.80
2023-09-08T15:35:18.910Z,26.76
2023-09-08T15:37:46.480Z,26.68
2023-09-08T15:40:15.439Z,26.17
2023-09-08T15:42:44.586Z,26.19
2023-09-08T15:45:12.603Z,27.13
2023-09-08T15:47:40.342Z,27.08
2023-09-08T15:50:10.099Z,27.08
2023-09-08T15:52:38.120Z,26.89
2023-09-08T15:55:06.098Z,27.07
2023-09-08T15:57:33.987Z,26.54
2023-09-08T16:00:01.651Z,26.64
2023-09-08T16:02:36.589Z,26.70
2023-09-08T16:05:04.834Z,26.92
2023-09-08T16:07:32.526Z,26.80
2023-09-08T16:10:00.061Z,26.77
2023-09-08T16:12:27.931Z,26.62
2023-09-08T16:14:55.508Z,26.89
2023-09-08T16:17:23.763Z,27.24
2023-09-08T16:19:51.677Z,27.08
2023-09-08T16:22:19.302Z,27.04
2023-09-08T16:24:46.893Z,27.24
2023-09-08T16:27:14.745Z,27.70
2023-09-08T16:29:43.024Z,27.48
2023-09-08T16:32:11.849Z,27.59
2023-09-08T16:34:39.763Z,27.90
2023-09-08T16:37:07.417Z,27.83
2023-09-08T16:39:35.082Z,27.72
2023-09-08T16:42:03.752Z,28.05
2023-09-08T16:44:31.336Z,28.19
2023-09-08T16:46:59.120Z,28.39
2023-09-08T16:49:27.257Z,28.90
2023-09-08T16:51:57.837Z,29.00
2023-09-08T16:54:25.339Z,29.65
2023-09-08T16:56:53.192Z,30.43
2023-09-08T16:59:22.152Z,30.57
2023-09-08T17:01:53.048Z,30.64
2023-09-08T17:04:21.082Z,32.05
2023-09-08T17:06:49.211Z,32.17
2023-09-08T17:09:18.563Z,33.86
2023-09-08T17:11:46.357Z,33.79
2023-09-08T17:14:14.089Z,33.44
2023-09-08T17:16:41.580Z,34.55
2023-09-08T17:19:11.092Z,34.56
2023-09-08T17:21:38.718Z,34.96
2023-09-08T17:24:06.579Z,35.54
2023-09-08T17:26:34.390Z,35.99
2023-09-08T17:29:02.065Z,36.23
2023-09-08T17:31:31.680Z,36.24
2023-09-08T17:33:59.704Z,36.55
2023-09-08T17:36:27.872Z,37.13
2023-09-08T17:38:55.422Z,36.88
2023-09-08T17:41:23.220Z,37.44
2023-09-08T17:43:50.785Z,37.96
2023-09-08T17:46:18.412Z,38.22
2023-09-08T17:48:46.400Z,38.28
2023-09-08T17:51:13.978Z,38.31
2023-09-08T17:53:41.560Z,38.52
2023-09-08T17:56:09.475Z,38.44
2023-09-08T17:58:37.086Z,38.48
2023-09-08T18:01:04.676Z,38.50
2023-09-08T18:03:32.745Z,39.06
2023-09-08T18:06:00.441Z,39.03
2023-09-08T18:08:28.038Z,39.25
2023-09-08T18:11:04.456Z,39.31
2023-09-08T18:13:32.728Z,39.69
2023-09-08T18:16:02.157Z,39.44
2023-09-08T18:18:31.436Z,39.36
2023-09-08T18:20:59.355Z,39.53
2023-09-08T18:23:27.636Z,39.94
2023-09-08T18:25:57.810Z,39.87
2023-09-08T18:28:26.903Z,40.12
2023-09-08T18:30:54.993Z,40.71
2023-09-08T18:33:22.925Z,39.82
2023-09-08T18:35:50.495Z,39.58
2023-09-08T18:38:18.674Z,40.11
2023-09-08T18:40:47.253Z,40.05
2023-09-08T18:43:15.918Z,39.88
2023-09-08T18:45:43.971Z,40.04
2023-09-08T18:48:12.107Z,40.19
2023-09-08T18:50:39.707Z,40.27
2023-09-08T18:53:07.587Z,40.44
2023-09-08T18:55:35.678Z,40.56
2023-09-08T18:58:06.001Z,40.80
2023-09-08T19:00:34.432Z,41.39
2023-09-08T19:03:03.390Z,41.17
2023-09-08T19:05:31.496Z,40.87
2023-09-08T19:07:59.553Z,41.19
2023-09-08T19:10:27.184Z,41.79
2023-09-08T19:12:54.927Z,42.13
2023-09-08T19:15:22.883Z,42.19
2023-09-08T19:17:52.404Z,42.13
2023-09-08T19:20:20.441Z,42.00
2023-09-08T19:22:49.563Z,42.19
2023-09-08T19:25:17.459Z,42.14
2023-09-08T19:27:45.131Z,42.43
2023-09-08T19:30:13.325Z,42.50
2023-09-08T19:32:40.977Z,42.37
2023-09-08T19:35:09.179Z,42.40
2023-09-08T19:37:37.028Z,42.56
2023-09-08T19:40:06.600Z,42.81
2023-09-08T19:42:34.165Z,42.91
2023-09-08T19:45:04.311Z,42.78
2023-09-08T19:47:33.299Z,42.57
2023-09-08T19:50:06.262Z,42.80
2023-09-08T19:52:34.092Z,42.81
2023-09-08T19:55:01.632Z,43.27
2023-09-08T19:57:29.193Z,43.30
2023-09-08T19:59:57.059Z,43.34
2023-09-08T20:02:25.025Z,43.84
2023-09-08T20:04:53.014Z,43.64
2023-09-08T20:07:20.522Z,43.47
2023-09-08T20:09:48.472Z,43.55
2023-09-08T20:12:16.356Z,43.78
2023-09-08T20:14:44.078Z,43.97
2023-09-08T20:17:11.859Z,44.13
2023-09-08T20:19:39.967Z,44.06
2023-09-08T20:22:07.821Z,44.32
2023-09-08T20:24:35.351Z,44.38
2023-09-08T20:27:03.575Z,45.15
2023-09-08T20:29:31.611Z,45.36
2023-09-08T20:31:59.684Z,45.15
2023-09-08T20:34:27.771Z,45.04
2023-09-08T20:36:55.898Z,44.83
2023-09-08T20:39:24.220Z,45.10
2023-09-08T20:41:52.387Z,45.04
2023-09-08T20:44:19.919Z,45.04
2023-09-08T20:46:47.695Z,45.02
2023-09-08T20:49:15.617Z,46.25
2023-09-08T20:51:43.238Z,45.88
2023-09-08T20:54:10.761Z,45.40
2023-09-08T20:56:39.178Z,45.51
2023-09-08T20:59:06.698Z,45.58
2023-09-08T21:01:34.296Z,45.67
2023-09-08T21:04:02.236Z,45.74
2023-09-08T21:06:29.834Z,45.48
2023-09-08T21:08:57.377Z,45.93
2023-09-08T21:11:25.632Z,47.19
2023-09-08T21:13:53.335Z,46.94
2023-09-08T21:16:20.925Z,46.70
2023-09-08T21:18:48.696Z,46.73
2023-09-08T21:21:16.172Z,46.42
2023-09-08T21:23:43.725Z,46.18
2023-09-08T21:26:11.711Z,45.93
2023-09-08T21:28:39.300Z,45.87
2023-09-08T21:31:08.902Z,45.78
2023-09-08T21:33:38.827Z,46.00
2023-09-08T21:36:07.943Z,45.95
2023-09-08T21:38:35.723Z,46.66
2023-09-08T21:41:10.820Z,46.36
2023-09-08T21:43:39.249Z,46.20
2023-09-08T21:46:08.457Z,46.03
2023-09-08T21:48:36.934Z,46.34
2023-09-08T21:51:05.401Z,46.08
2023-09-08T21:53:33.380Z,46.09
2023-09-08T21:56:01.027Z,46.32
2023-09-08T21:58:28.779Z,46.67
2023-09-08T22:00:57.376Z,46.22
2023-09-08T22:03:25.423Z,46.07
2023-09-08T22:05:53.304Z,45.95
2023-09-08T22:08:20.824Z,46.38
2023-09-08T22:10:48.646Z,46.34
2023-09-08T22:13:16.115Z,46.62
2023-09-08T22:15:43.791Z,46.53
2023-09-08T22:18:11.689Z,46.53
2023-09-08T22:20:41.130Z,46.58
2023-09-08T22:23:10.077Z,46.50
2023-09-08T22:25:39.753Z,46.65
2023-09-08T22:28:07.818Z,46.58
2023-09-08T22:30:35.398Z,48.05
2023-09-08T22:33:04.419Z,47.29
2023-09-08T22:35:32.143Z,47.20
2023-09-08T22:37:59.731Z,47.44
2023-09-08T22:40:27.833Z,47.65
2023-09-08T22:42:55.473Z,47.48
2023-09-08T22:45:23.682Z,47.87
2023-09-08T22:47:51.581Z,47.82
2023-09-08T22:50:19.294Z,47.88
2023-09-08T22:52:46.927Z,47.55
2023-09-08T22:55:25.212Z,47.72
2023-09-08T22:57:54.639Z,47.60
2023-09-08T23:00:23.501Z,47.48
2023-09-08T23:02:51.230Z,47.81
2023-09-08T23:05:18.854Z,47.77
2023-09-08T23:07:46.848Z,47.73
2023-09-08T23:10:15.293Z,47.98
2023-09-08T23:12:43.019Z,48.01
2023-09-08T23:15:11.153Z,48.05
2023-09-08T23:17:39.282Z,48.09
2023-09-08T23:20:16.840Z,48.07
2023-09-08T23:22:45.294Z,48.12
2023-09-08T23:25:13.432Z,48.63
2023-09-08T23:27:41.073Z,48.56
2023-09-08T23:30:10.156Z,48.49
2023-09-08T23:32:37.896Z,48.58
2023-09-08T23:35:06.894Z,48.74
2023-09-08T23:37:34.803Z,49.20
2023-09-08T23:40:05.548Z,49.19
2023-09-08T23:42:33.072Z,48.93
2023-09-08T23:45:00.884Z,49.31
2023-09-08T23:47:28.382Z,49.05
2023-09-08T23:49:55.998Z,49.28
2023-09-08T23:52:23.749Z,49.51
2023-09-08T23:54:51.241Z,49.17
2023-09-08T23:57:18.804Z,49.56
2023-09-08T23:59:47.862Z,49.79
